sensor_id;sensor_type;location;lat;lon;timestamp;temperature;humidity
65652;SHT30;52350;51.546;7.002;2022-09-24T00:00:36;13.73;85.60
65652;SHT30;52350;51.546;7.002;2022-09-24T00:03:02;13.73;85.79
65652;SHT30;52350;51.546;7.002;2022-09-24T00:05:27;13.73;86.01
65652;SHT30;52350;51.546;7.002;2022-09-24T00:07:53;13.82;86.20
65652;SHT30;52350;51.546;7.002;2022-09-24T00:10:18;13.86;86.13
65652;SHT30;52350;51.546;7.002;2022-09-24T00:12:44;13.86;86.10
65652;SHT30;52350;51.546;7.002;2022-09-24T00:15:09;13.90;86.09
65652;SHT30;52350;51.546;7.002;2022-09-24T00:17:35;13.95;86.07
65652;SHT30;52350;51.546;7.002;2022-09-24T00:20:00;13.93;86.22
65652;SHT30;52350;51.546;7.002;2022-09-24T00:22:26;13.95;86.35
65652;SHT30;52350;51.546;7.002;2022-09-24T00:24:51;13.93;86.36
65652;SHT30;52350;51.546;7.002;2022-09-24T00:27:35;13.91;86.47
65652;SHT30;52350;51.546;7.002;2022-09-24T00:30:00;13.96;86.56
65652;SHT30;52350;51.546;7.002;2022-09-24T00:32:26;13.99;86.75
65652;SHT30;52350;51.546;7.002;2022-09-24T00:34:51;13.99;86.82
65652;SHT30;52350;51.546;7.002;2022-09-24T00:37:17;13.97;86.76
65652;SHT30;52350;51.546;7.002;2022-09-24T00:39:43;14.02;86.90
65652;SHT30;52350;51.546;7.002;2022-09-24T00:42:10;14.00;87.06
65652;SHT30;52350;51.546;7.002;2022-09-24T00:44:49;13.99;87.27
65652;SHT30;52350;51.546;7.002;2022-09-24T00:47:28;13.97;87.50
65652;SHT30;52350;51.546;7.002;2022-09-24T00:50:07;14.00;87.47
65652;SHT30;52350;51.546;7.002;2022-09-24T00:55:19;14.00;87.63
65652;SHT30;52350;51.546;7.002;2022-09-24T00:57:48;13.97;87.78
65652;SHT30;52350;51.546;7.002;2022-09-24T01:00:16;13.97;87.94
65652;SHT30;52350;51.546;7.002;2022-09-24T01:02:43;13.96;87.97
65652;SHT30;52350;51.546;7.002;2022-09-24T01:05:11;13.96;87.92
65652;SHT30;52350;51.546;7.002;2022-09-24T01:07:37;13.96;88.02
65652;SHT30;52350;51.546;7.002;2022-09-24T01:10:03;13.97;88.02
65652;SHT30;52350;51.546;7.002;2022-09-24T01:12:51;13.97;88.01
65652;SHT30;52350;51.546;7.002;2022-09-24T01:15:26;13.87;88.20
65652;SHT30;52350;51.546;7.002;2022-09-24T01:32:01;13.78;88.75
65652;SHT30;52350;51.546;7.002;2022-09-24T01:34:33;13.78;88.86
65652;SHT30;52350;51.546;7.002;2022-09-24T01:37:21;13.72;88.90
65652;SHT30;52350;51.546;7.002;2022-09-24T01:39:50;13.69;89.04
65652;SHT30;52350;51.546;7.002;2022-09-24T01:42:17;13.68;89.14
65652;SHT30;52350;51.546;7.002;2022-09-24T01:44:45;13.68;89.22
65652;SHT30;52350;51.546;7.002;2022-09-24T01:47:15;13.66;89.31
65652;SHT30;52350;51.546;7.002;2022-09-24T01:49:45;13.68;89.36
65652;SHT30;52350;51.546;7.002;2022-09-24T01:52:12;13.65;89.41
65652;SHT30;52350;51.546;7.002;2022-09-24T01:54:42;13.62;89.46
65652;SHT30;52350;51.546;7.002;2022-09-24T02:00:13;13.63;89.56
65652;SHT30;52350;51.546;7.002;2022-09-24T02:02:48;13.58;89.53
65652;SHT30;52350;51.546;7.002;2022-09-24T02:05:44;13.62;89.50
65652;SHT30;52350;51.546;7.002;2022-09-24T02:08:27;13.59;89.56
65652;SHT30;52350;51.546;7.002;2022-09-24T02:11:10;13.59;89.53
65652;SHT30;52350;51.546;7.002;2022-09-24T02:13:42;13.51;89.64
65652;SHT30;52350;51.546;7.002;2022-09-24T02:16:15;13.51;89.69
65652;SHT30;52350;51.546;7.002;2022-09-24T02:18:47;13.44;89.83
65652;SHT30;52350;51.546;7.002;2022-09-24T02:21:15;13.44;89.95
65652;SHT30;52350;51.546;7.002;2022-09-24T02:23:44;13.40;90.02
65652;SHT30;52350;51.546;7.002;2022-09-24T02:26:14;13.38;90.11
65652;SHT30;52350;51.546;7.002;2022-09-24T02:28:40;13.34;90.20
65652;SHT30;52350;51.546;7.002;2022-09-24T02:31:10;13.31;90.33
65652;SHT30;52350;51.546;7.002;2022-09-24T02:33:41;13.30;90.43
65652;SHT30;52350;51.546;7.002;2022-09-24T02:36:28;13.24;90.52
65652;SHT30;52350;51.546;7.002;2022-09-24T02:38:54;13.20;90.58
65652;SHT30;52350;51.546;7.002;2022-09-24T02:41:20;13.17;90.66
65652;SHT30;52350;51.546;7.002;2022-09-24T02:43:48;13.16;90.74
65652;SHT30;52350;51.546;7.002;2022-09-24T02:46:14;13.14;90.79
65652;SHT30;52350;51.546;7.002;2022-09-24T02:48:39;13.17;90.86
65652;SHT30;52350;51.546;7.002;2022-09-24T02:51:05;13.20;90.91
65652;SHT30;52350;51.546;7.002;2022-09-24T02:53:31;13.16;90.89
65652;SHT30;52350;51.546;7.002;2022-09-24T02:55:57;13.17;90.97
65652;SHT30;52350;51.546;7.002;2022-09-24T02:58:25;13.18;91.01
65652;SHT30;52350;51.546;7.002;2022-09-24T03:00:52;13.18;91.04
65652;SHT30;52350;51.546;7.002;2022-09-24T03:03:19;13.17;90.97
65652;SHT30;52350;51.546;7.002;2022-09-24T03:05:45;13.18;90.94
65652;SHT30;52350;51.546;7.002;2022-09-24T03:08:11;13.18;91.00
65652;SHT30;52350;51.546;7.002;2022-09-24T03:10:36;13.16;91.04
65652;SHT30;52350;51.546;7.002;2022-09-24T03:13:03;13.17;91.09
65652;SHT30;52350;51.546;7.002;2022-09-24T03:15:28;13.16;91.12
65652;SHT30;52350;51.546;7.002;2022-09-24T03:17:54;13.11;91.04
65652;SHT30;52350;51.546;7.002;2022-09-24T03:20:20;13.10;91.11
65652;SHT30;52350;51.546;7.002;2022-09-24T03:22:49;13.04;91.13
65652;SHT30;52350;51.546;7.002;2022-09-24T03:25:15;13.04;91.17
65652;SHT30;52350;51.546;7.002;2022-09-24T03:27:41;13.04;91.24
65652;SHT30;52350;51.546;7.002;2022-09-24T03:30:07;13.04;91.24
65652;SHT30;52350;51.546;7.002;2022-09-24T03:32:51;13.04;91.24
65652;SHT30;52350;51.546;7.002;2022-09-24T03:35:16;13.00;91.30
65652;SHT30;52350;51.546;7.002;2022-09-24T03:37:42;12.99;91.52
65652;SHT30;52350;51.546;7.002;2022-09-24T03:40:08;12.96;91.50
65652;SHT30;52350;51.546;7.002;2022-09-24T03:42:33;12.95;91.53
65652;SHT30;52350;51.546;7.002;2022-09-24T03:44:59;12.93;91.64
65652;SHT30;52350;51.546;7.002;2022-09-24T03:47:24;12.95;91.63
65652;SHT30;52350;51.546;7.002;2022-09-24T03:49:50;12.93;91.70
65652;SHT30;52350;51.546;7.002;2022-09-24T03:52:17;12.93;91.74
65652;SHT30;52350;51.546;7.002;2022-09-24T03:54:43;12.93;91.80
65652;SHT30;52350;51.546;7.002;2022-09-24T03:57:08;12.93;91.85
65652;SHT30;52350;51.546;7.002;2022-09-24T03:59:33;12.97;91.88
65652;SHT30;52350;51.546;7.002;2022-09-24T04:01:59;12.96;91.86
65652;SHT30;52350;51.546;7.002;2022-09-24T04:04:24;12.93;91.88
65652;SHT30;52350;51.546;7.002;2022-09-24T04:06:50;12.92;91.91
65652;SHT30;52350;51.546;7.002;2022-09-24T04:09:16;12.90;92.00
65652;SHT30;52350;51.546;7.002;2022-09-24T04:11:42;12.89;92.07
65652;SHT30;52350;51.546;7.002;2022-09-24T04:14:07;12.89;92.10
65652;SHT30;52350;51.546;7.002;2022-09-24T04:16:34;12.89;92.10
65652;SHT30;52350;51.546;7.002;2022-09-24T04:19:00;12.88;92.06
65652;SHT30;52350;51.546;7.002;2022-09-24T04:21:26;12.83;92.14
65652;SHT30;52350;51.546;7.002;2022-09-24T04:23:51;12.82;92.16
65652;SHT30;52350;51.546;7.002;2022-09-24T04:26:17;12.85;92.23
65652;SHT30;52350;51.546;7.002;2022-09-24T04:28:42;12.82;92.22
65652;SHT30;52350;51.546;7.002;2022-09-24T04:31:08;12.83;92.26
65652;SHT30;52350;51.546;7.002;2022-09-24T04:33:33;12.85;92.21
65652;SHT30;52350;51.546;7.002;2022-09-24T04:35:59;12.82;92.26
65652;SHT30;52350;51.546;7.002;2022-09-24T04:38:24;12.83;92.26
65652;SHT30;52350;51.546;7.002;2022-09-24T04:40:49;12.78;92.15
65652;SHT30;52350;51.546;7.002;2022-09-24T04:43:15;12.82;92.16
65652;SHT30;52350;51.546;7.002;2022-09-24T04:45:43;12.78;92.09
65652;SHT30;52350;51.546;7.002;2022-09-24T04:48:09;12.76;92.13
65652;SHT30;52350;51.546;7.002;2022-09-24T04:50:35;12.73;92.23
65652;SHT30;52350;51.546;7.002;2022-09-24T04:53:01;12.75;92.24
65652;SHT30;52350;51.546;7.002;2022-09-24T04:55:27;12.72;92.36
65652;SHT30;52350;51.546;7.002;2022-09-24T04:57:56;12.73;92.41
65652;SHT30;52350;51.546;7.002;2022-09-24T05:00:22;12.76;92.46
65652;SHT30;52350;51.546;7.002;2022-09-24T05:02:54;12.75;92.52
65652;SHT30;52350;51.546;7.002;2022-09-24T05:05:21;12.73;92.60
65652;SHT30;52350;51.546;7.002;2022-09-24T05:07:47;12.76;92.63
65652;SHT30;52350;51.546;7.002;2022-09-24T05:10:13;12.76;92.53
65652;SHT30;52350;51.546;7.002;2022-09-24T05:12:39;12.76;92.32
65652;SHT30;52350;51.546;7.002;2022-09-24T05:15:05;12.69;92.36
65652;SHT30;52350;51.546;7.002;2022-09-24T05:17:31;12.72;92.30
65652;SHT30;52350;51.546;7.002;2022-09-24T05:19:56;12.72;92.36
65652;SHT30;52350;51.546;7.002;2022-09-24T05:22:24;12.71;92.31
65652;SHT30;52350;51.546;7.002;2022-09-24T05:24:51;12.66;92.38
65652;SHT30;52350;51.546;7.002;2022-09-24T05:27:16;12.66;92.36
65652;SHT30;52350;51.546;7.002;2022-09-24T05:29:43;12.62;92.35
65652;SHT30;52350;51.546;7.002;2022-09-24T05:32:09;12.63;92.39
65652;SHT30;52350;51.546;7.002;2022-09-24T05:34:36;12.63;92.45
65652;SHT30;52350;51.546;7.002;2022-09-24T05:37:02;12.63;92.53
65652;SHT30;52350;51.546;7.002;2022-09-24T05:39:28;12.63;92.49
65652;SHT30;52350;51.546;7.002;2022-09-24T05:41:54;12.62;92.53
65652;SHT30;52350;51.546;7.002;2022-09-24T05:44:19;12.62;92.53
65652;SHT30;52350;51.546;7.002;2022-09-24T05:46:48;12.59;92.53
65652;SHT30;52350;51.546;7.002;2022-09-24T05:49:15;12.62;92.55
65652;SHT30;52350;51.546;7.002;2022-09-24T05:51:41;12.61;92.40
65652;SHT30;52350;51.546;7.002;2022-09-24T05:54:06;12.59;92.52
65652;SHT30;52350;51.546;7.002;2022-09-24T05:56:32;12.61;92.51
65652;SHT30;52350;51.546;7.002;2022-09-24T05:58:57;12.56;92.49
65652;SHT30;52350;51.546;7.002;2022-09-24T06:01:26;12.58;92.52
65652;SHT30;52350;51.546;7.002;2022-09-24T06:03:54;12.59;92.53
65652;SHT30;52350;51.546;7.002;2022-09-24T06:06:20;12.62;92.50
65652;SHT30;52350;51.546;7.002;2022-09-24T06:08:46;12.66;92.49
65652;SHT30;52350;51.546;7.002;2022-09-24T06:11:11;12.66;92.37
65652;SHT30;52350;51.546;7.002;2022-09-24T06:13:38;12.68;92.33
65652;SHT30;52350;51.546;7.002;2022-09-24T06:16:04;12.69;92.32
65652;SHT30;52350;51.546;7.002;2022-09-24T06:18:36;12.75;92.37
65652;SHT30;52350;51.546;7.002;2022-09-24T06:21:05;12.80;92.32
65652;SHT30;52350;51.546;7.002;2022-09-24T06:23:32;12.82;92.33
65652;SHT30;52350;51.546;7.002;2022-09-24T06:25:59;12.83;92.35
65652;SHT30;52350;51.546;7.002;2022-09-24T06:28:25;12.89;92.27
65652;SHT30;52350;51.546;7.002;2022-09-24T06:30:50;12.92;92.31
65652;SHT30;52350;51.546;7.002;2022-09-24T06:33:17;12.95;92.30
65652;SHT30;52350;51.546;7.002;2022-09-24T06:35:44;13.00;92.17
65652;SHT30;52350;51.546;7.002;2022-09-24T06:38:11;13.04;92.17
65652;SHT30;52350;51.546;7.002;2022-09-24T06:40:38;13.10;92.08
65652;SHT30;52350;51.546;7.002;2022-09-24T06:43:04;13.13;92.18
65652;SHT30;52350;51.546;7.002;2022-09-24T06:45:31;13.17;92.07
65652;SHT30;52350;51.546;7.002;2022-09-24T06:47:57;13.21;92.06
65652;SHT30;52350;51.546;7.002;2022-09-24T06:50:24;13.28;92.05
65652;SHT30;52350;51.546;7.002;2022-09-24T06:52:52;13.35;92.07
65652;SHT30;52350;51.546;7.002;2022-09-24T06:55:18;13.43;91.84
65652;SHT30;52350;51.546;7.002;2022-09-24T06:57:43;13.51;91.63
65652;SHT30;52350;51.546;7.002;2022-09-24T07:00:10;13.57;91.53
65652;SHT30;52350;51.546;7.002;2022-09-24T07:02:36;13.72;91.10
65652;SHT30;52350;51.546;7.002;2022-09-24T07:05:01;13.78;90.86
65652;SHT30;52350;51.546;7.002;2022-09-24T07:07:27;13.89;90.79
65652;SHT30;52350;51.546;7.002;2022-09-24T07:10:00;14.00;90.56
65652;SHT30;52350;51.546;7.002;2022-09-24T07:12:28;14.06;90.31
65652;SHT30;52350;51.546;7.002;2022-09-24T07:14:54;14.17;90.10
65652;SHT30;52350;51.546;7.002;2022-09-24T07:17:20;14.31;88.09
65652;SHT30;52350;51.546;7.002;2022-09-24T07:19:46;14.34;87.61
65652;SHT30;52350;51.546;7.002;2022-09-24T07:22:11;14.41;87.75
65652;SHT30;52350;51.546;7.002;2022-09-24T07:24:37;14.49;87.93
65652;SHT30;52350;51.546;7.002;2022-09-24T07:27:03;14.55;87.74
65652;SHT30;52350;51.546;7.002;2022-09-24T07:29:29;14.65;87.53
65652;SHT30;52350;51.546;7.002;2022-09-24T07:31:55;14.71;87.19
65652;SHT30;52350;51.546;7.002;2022-09-24T07:34:20;14.80;86.98
65652;SHT30;52350;51.546;7.002;2022-09-24T07:36:46;14.86;86.30
65652;SHT30;52350;51.546;7.002;2022-09-24T07:39:11;14.97;85.60
65652;SHT30;52350;51.546;7.002;2022-09-24T07:41:37;15.02;84.66
65652;SHT30;52350;51.546;7.002;2022-09-24T07:44:05;15.00;84.40
65652;SHT30;52350;51.546;7.002;2022-09-24T07:46:31;15.04;84.65
65652;SHT30;52350;51.546;7.002;2022-09-24T07:48:57;15.08;84.35
65652;SHT30;52350;51.546;7.002;2022-09-24T07:51:23;15.04;84.29
65652;SHT30;52350;51.546;7.002;2022-09-24T07:53:50;15.11;83.17
65652;SHT30;52350;51.546;7.002;2022-09-24T07:56:15;15.10;83.62
65652;SHT30;52350;51.546;7.002;2022-09-24T07:58:41;15.19;82.78
65652;SHT30;52350;51.546;7.002;2022-09-24T08:01:07;15.27;82.21
65652;SHT30;52350;51.546;7.002;2022-09-24T08:03:32;15.30;81.76
65652;SHT30;52350;51.546;7.002;2022-09-24T08:05:59;15.34;80.95
65652;SHT30;52350;51.546;7.002;2022-09-24T08:08:25;15.38;81.57
65652;SHT30;52350;51.546;7.002;2022-09-24T08:10:51;15.40;81.43
65652;SHT30;52350;51.546;7.002;2022-09-24T08:13:16;15.52;80.50
65652;SHT30;52350;51.546;7.002;2022-09-24T08:15:42;15.51;80.07
65652;SHT30;52350;51.546;7.002;2022-09-24T08:18:07;15.57;80.34
65652;SHT30;52350;51.546;7.002;2022-09-24T08:20:34;15.57;79.58
65652;SHT30;52350;51.546;7.002;2022-09-24T08:23:05;15.57;80.07
65652;SHT30;52350;51.546;7.002;2022-09-24T08:25:34;15.65;79.87
65652;SHT30;52350;51.546;7.002;2022-09-24T08:28:03;15.66;79.16
65652;SHT30;52350;51.546;7.002;2022-09-24T08:30:29;15.75;78.59
65652;SHT30;52350;51.546;7.002;2022-09-24T08:32:55;15.78;78.92
65652;SHT30;52350;51.546;7.002;2022-09-24T08:35:22;15.81;79.19
65652;SHT30;52350;51.546;7.002;2022-09-24T08:37:47;15.96;77.04
65652;SHT30;52350;51.546;7.002;2022-09-24T08:40:16;15.92;78.29
65652;SHT30;52350;51.546;7.002;2022-09-24T08:43:04;16.02;77.76
65652;SHT30;52350;51.546;7.002;2022-09-24T08:45:54;16.09;77.48
65652;SHT30;52350;51.546;7.002;2022-09-24T08:48:41;16.18;77.58
65652;SHT30;52350;51.546;7.002;2022-09-24T08:51:12;16.32;77.75
65652;SHT30;52350;51.546;7.002;2022-09-24T08:53:50;16.41;77.09
65652;SHT30;52350;51.546;7.002;2022-09-24T08:56:24;16.49;76.60
65652;SHT30;52350;51.546;7.002;2022-09-24T09:09:32;16.69;75.04
65652;SHT30;52350;51.546;7.002;2022-09-24T09:12:10;16.73;73.83
65652;SHT30;52350;51.546;7.002;2022-09-24T09:14:45;16.76;74.10
65652;SHT30;52350;51.546;7.002;2022-09-24T09:19:53;16.76;72.78
65652;SHT30;52350;51.546;7.002;2022-09-24T09:22:22;16.79;72.49
65652;SHT30;52350;51.546;7.002;2022-09-24T09:24:52;16.83;73.28
65652;SHT30;52350;51.546;7.002;2022-09-24T09:27:19;16.86;73.50
65652;SHT30;52350;51.546;7.002;2022-09-24T09:29:50;16.96;73.93
65652;SHT30;52350;51.546;7.002;2022-09-24T09:37:50;17.17;71.07
65652;SHT30;52350;51.546;7.002;2022-09-24T09:40:34;17.20;71.39
65652;SHT30;52350;51.546;7.002;2022-09-24T09:43:09;17.28;71.00
65652;SHT30;52350;51.546;7.002;2022-09-24T09:51:12;17.61;70.21
65652;SHT30;52350;51.546;7.002;2022-09-24T09:53:52;17.65;68.75
65652;SHT30;52350;51.546;7.002;2022-09-24T09:56:21;17.68;69.69
65652;SHT30;52350;51.546;7.002;2022-09-24T09:58:48;17.69;69.21
65652;SHT30;52350;51.546;7.002;2022-09-24T10:01:19;17.76;68.71
65652;SHT30;52350;51.546;7.002;2022-09-24T10:03:55;17.78;68.08
65652;SHT30;52350;51.546;7.002;2022-09-24T10:06:33;17.86;70.73
65652;SHT30;52350;51.546;7.002;2022-09-24T10:09:16;17.93;69.06
65652;SHT30;52350;51.546;7.002;2022-09-24T10:11:44;18.00;70.04
65652;SHT30;52350;51.546;7.002;2022-09-24T10:14:11;17.91;67.64
65652;SHT30;52350;51.546;7.002;2022-09-24T10:16:43;17.93;68.48
65652;SHT30;52350;51.546;7.002;2022-09-24T10:19:25;17.87;69.38
65652;SHT30;52350;51.546;7.002;2022-09-24T10:21:53;17.78;69.36
65652;SHT30;52350;51.546;7.002;2022-09-24T10:24:22;17.71;69.09
65652;SHT30;52350;51.546;7.002;2022-09-24T10:26:49;17.69;69.98
65652;SHT30;52350;51.546;7.002;2022-09-24T10:29:16;17.69;69.52
65652;SHT30;52350;51.546;7.002;2022-09-24T10:32:18;17.62;68.74
65652;SHT30;52350;51.546;7.002;2022-09-24T10:34:56;17.49;70.11
65652;SHT30;52350;51.546;7.002;2022-09-24T10:37:26;17.39;69.05
65652;SHT30;52350;51.546;7.002;2022-09-24T10:40:09;17.30;69.70
65652;SHT30;52350;51.546;7.002;2022-09-24T10:42:37;17.24;71.27
65652;SHT30;52350;51.546;7.002;2022-09-24T10:45:05;17.17;70.59
65652;SHT30;52350;51.546;7.002;2022-09-24T10:47:43;17.11;69.14
65652;SHT30;52350;51.546;7.002;2022-09-24T10:52:53;16.96;72.81
65652;SHT30;52350;51.546;7.002;2022-09-24T10:55:44;16.99;71.98
65652;SHT30;52350;51.546;7.002;2022-09-24T11:01:10;16.99;71.83
65652;SHT30;52350;51.546;7.002;2022-09-24T11:09:23;16.89;72.82
65652;SHT30;52350;51.546;7.002;2022-09-24T11:52:44;17.48;70.62
65652;SHT30;52350;51.546;7.002;2022-09-24T11:58:23;17.69;70.00
65652;SHT30;52350;51.546;7.002;2022-09-24T12:00:53;17.68;69.21
65652;SHT30;52350;51.546;7.002;2022-09-24T12:03:34;17.65;68.76
65652;SHT30;52350;51.546;7.002;2022-09-24T12:06:08;17.75;68.80
65652;SHT30;52350;51.546;7.002;2022-09-24T12:14:00;17.85;68.94
65652;SHT30;52350;51.546;7.002;2022-09-24T12:16:36;17.91;69.15
65652;SHT30;52350;51.546;7.002;2022-09-24T12:21:38;18.25;67.73
65652;SHT30;52350;51.546;7.002;2022-09-24T12:26:43;18.85;65.46
65652;SHT30;52350;51.546;7.002;2022-09-24T12:29:20;19.24;64.06
65652;SHT30;52350;51.546;7.002;2022-09-24T12:32:40;19.65;62.64
65652;SHT30;52350;51.546;7.002;2022-09-24T12:38:02;19.65;66.81
65652;SHT30;52350;51.546;7.002;2022-09-24T12:43:26;18.77;69.86
65652;SHT30;52350;51.546;7.002;2022-09-24T12:45:58;18.51;69.84
65652;SHT30;52350;51.546;7.002;2022-09-24T12:48:26;18.28;70.90
65652;SHT30;52350;51.546;7.002;2022-09-24T12:50:58;18.14;72.33
65652;SHT30;52350;51.546;7.002;2022-09-24T12:53:33;18.00;73.25
65652;SHT30;52350;51.546;7.002;2022-09-24T12:56:01;17.82;72.55
65652;SHT30;52350;51.546;7.002;2022-09-24T13:03:37;17.61;73.85
65652;SHT30;52350;51.546;7.002;2022-09-24T13:08:58;17.52;72.92
65652;SHT30;52350;51.546;7.002;2022-09-24T13:14:05;17.44;73.43
65652;SHT30;52350;51.546;7.002;2022-09-24T13:16:40;17.38;75.37
65652;SHT30;52350;51.546;7.002;2022-09-24T13:19:43;17.32;75.99
65652;SHT30;52350;51.546;7.002;2022-09-24T13:22:05;17.27;76.10
65652;SHT30;52350;51.546;7.002;2022-09-24T13:24:46;17.21;76.36
65652;SHT30;52350;51.546;7.002;2022-09-24T13:27:32;17.20;77.17
65652;SHT30;52350;51.546;7.002;2022-09-24T13:32:48;17.21;77.88
65652;SHT30;52350;51.546;7.002;2022-09-24T13:35:18;17.23;78.13
65652;SHT30;52350;51.546;7.002;2022-09-24T13:37:51;17.27;78.35
65652;SHT30;52350;51.546;7.002;2022-09-24T13:40:24;17.27;79.10
65652;SHT30;52350;51.546;7.002;2022-09-24T13:45:37;17.28;79.80
65652;SHT30;52350;51.546;7.002;2022-09-24T13:48:14;17.31;79.34
65652;SHT30;52350;51.546;7.002;2022-09-24T13:50:49;17.35;79.80
65652;SHT30;52350;51.546;7.002;2022-09-24T13:53:17;17.44;78.96
65652;SHT30;52350;51.546;7.002;2022-09-24T13:55:53;17.38;79.00
65652;SHT30;52350;51.546;7.002;2022-09-24T13:58:29;17.37;79.32
65652;SHT30;52350;51.546;7.002;2022-09-24T14:00:57;17.44;79.16
65652;SHT30;52350;51.546;7.002;2022-09-24T14:03:35;17.44;79.94
65652;SHT30;52350;51.546;7.002;2022-09-24T14:06:07;17.38;78.84
65652;SHT30;52350;51.546;7.002;2022-09-24T14:08:41;17.30;80.29
65652;SHT30;52350;51.546;7.002;2022-09-24T14:11:13;17.32;80.06
65652;SHT30;52350;51.546;7.002;2022-09-24T14:13:40;17.24;80.18
65652;SHT30;52350;51.546;7.002;2022-09-24T14:16:16;17.24;78.86
65652;SHT30;52350;51.546;7.002;2022-09-24T14:18:44;17.13;78.93
65652;SHT30;52350;51.546;7.002;2022-09-24T14:21:23;17.11;78.95
65652;SHT30;52350;51.546;7.002;2022-09-24T14:23:59;17.06;79.21
65652;SHT30;52350;51.546;7.002;2022-09-24T14:26:40;17.04;79.76
65652;SHT30;52350;51.546;7.002;2022-09-24T14:29:16;16.97;79.93
65652;SHT30;52350;51.546;7.002;2022-09-24T14:31:50;16.93;79.44
65652;SHT30;52350;51.546;7.002;2022-09-24T14:34:38;16.83;79.95
65652;SHT30;52350;51.546;7.002;2022-09-24T14:37:08;16.80;79.92
65652;SHT30;52350;51.546;7.002;2022-09-24T14:39:42;16.73;80.24
65652;SHT30;52350;51.546;7.002;2022-09-24T14:42:32;16.73;80.93
65652;SHT30;52350;51.546;7.002;2022-09-24T14:45:01;16.62;81.35
65652;SHT30;52350;51.546;7.002;2022-09-24T14:47:31;16.61;81.23
65652;SHT30;52350;51.546;7.002;2022-09-24T14:49:58;16.58;81.49
65652;SHT30;52350;51.546;7.002;2022-09-24T14:52:26;16.51;81.54
65652;SHT30;52350;51.546;7.002;2022-09-24T14:57:45;16.49;82.35
65652;SHT30;52350;51.546;7.002;2022-09-24T15:02:49;16.40;82.64
65652;SHT30;52350;51.546;7.002;2022-09-24T15:05:22;16.41;83.01
65652;SHT30;52350;51.546;7.002;2022-09-24T15:07:49;16.40;82.58
65652;SHT30;52350;51.546;7.002;2022-09-24T15:10:18;16.40;82.48
65652;SHT30;52350;51.546;7.002;2022-09-24T15:12:46;16.44;82.55
65652;SHT30;52350;51.546;7.002;2022-09-24T15:17:41;16.41;82.30
65652;SHT30;52350;51.546;7.002;2022-09-24T15:20:08;16.37;82.13
65652;SHT30;52350;51.546;7.002;2022-09-24T15:22:35;16.38;81.98
65652;SHT30;52350;51.546;7.002;2022-09-24T15:25:00;16.38;81.98
65652;SHT30;52350;51.546;7.002;2022-09-24T15:27:28;16.31;81.86
65652;SHT30;52350;51.546;7.002;2022-09-24T15:29:59;16.32;82.06
65652;SHT30;52350;51.546;7.002;2022-09-24T15:32:26;16.31;81.84
65652;SHT30;52350;51.546;7.002;2022-09-24T15:34:52;16.38;81.71
65652;SHT30;52350;51.546;7.002;2022-09-24T15:37:19;16.37;81.74
65652;SHT30;52350;51.546;7.002;2022-09-24T15:39:46;16.34;81.94
65652;SHT30;52350;51.546;7.002;2022-09-24T15:44:42;16.30;82.23
65652;SHT30;52350;51.546;7.002;2022-09-24T15:47:09;16.30;82.29
65652;SHT30;52350;51.546;7.002;2022-09-24T15:49:34;16.27;82.47
65652;SHT30;52350;51.546;7.002;2022-09-24T15:52:13;16.21;82.67
65652;SHT30;52350;51.546;7.002;2022-09-24T15:54:41;16.20;83.02
65652;SHT30;52350;51.546;7.002;2022-09-24T15:57:09;16.16;83.03
65652;SHT30;52350;51.546;7.002;2022-09-24T15:59:36;16.10;82.96
65652;SHT30;52350;51.546;7.002;2022-09-24T16:02:02;16.07;83.21
65652;SHT30;52350;51.546;7.002;2022-09-24T16:04:35;16.03;83.32
65652;SHT30;52350;51.546;7.002;2022-09-24T16:07:00;16.00;83.45
65652;SHT30;52350;51.546;7.002;2022-09-24T16:09:26;15.96;83.50
65652;SHT30;52350;51.546;7.002;2022-09-24T16:11:51;15.96;83.34
65652;SHT30;52350;51.546;7.002;2022-09-24T16:14:19;15.90;82.97
65652;SHT30;52350;51.546;7.002;2022-09-24T16:16:44;15.92;82.76
65652;SHT30;52350;51.546;7.002;2022-09-24T16:19:10;15.85;82.51
65652;SHT30;52350;51.546;7.002;2022-09-24T16:21:36;15.83;82.61
65652;SHT30;52350;51.546;7.002;2022-09-24T16:24:01;15.73;82.26
65652;SHT30;52350;51.546;7.002;2022-09-24T16:26:27;15.72;82.42
65652;SHT30;52350;51.546;7.002;2022-09-24T16:28:53;15.70;82.36
65652;SHT30;52350;51.546;7.002;2022-09-24T16:31:19;15.69;81.89
65652;SHT30;52350;51.546;7.002;2022-09-24T16:33:44;15.63;82.19
65652;SHT30;52350;51.546;7.002;2022-09-24T16:36:11;15.57;82.30
65652;SHT30;52350;51.546;7.002;2022-09-24T16:38:37;15.52;82.65
65652;SHT30;52350;51.546;7.002;2022-09-24T16:41:04;15.48;82.67
65652;SHT30;52350;51.546;7.002;2022-09-24T16:43:30;15.42;82.76
65652;SHT30;52350;51.546;7.002;2022-09-24T16:46:02;15.47;82.84
65652;SHT30;52350;51.546;7.002;2022-09-24T16:48:30;15.35;83.27
65652;SHT30;52350;51.546;7.002;2022-09-24T16:51:08;15.32;83.72
65652;SHT30;52350;51.546;7.002;2022-09-24T16:53:35;15.31;84.10
65652;SHT30;52350;51.546;7.002;2022-09-24T16:56:12;15.26;84.45
65652;SHT30;52350;51.546;7.002;2022-09-24T16:58:41;15.26;84.73
65652;SHT30;52350;51.546;7.002;2022-09-24T17:01:10;15.24;84.89
65652;SHT30;52350;51.546;7.002;2022-09-24T17:03:37;15.19;85.00
65652;SHT30;52350;51.546;7.002;2022-09-24T17:06:04;15.16;85.09
65652;SHT30;52350;51.546;7.002;2022-09-24T17:08:30;15.13;85.24
65652;SHT30;52350;51.546;7.002;2022-09-24T17:11:15;15.10;85.56
65652;SHT30;52350;51.546;7.002;2022-09-24T17:13:41;15.11;85.62
65652;SHT30;52350;51.546;7.002;2022-09-24T17:16:07;15.10;85.78
65652;SHT30;52350;51.546;7.002;2022-09-24T17:18:32;15.07;85.65
65652;SHT30;52350;51.546;7.002;2022-09-24T17:21:02;15.06;85.64
65652;SHT30;52350;51.546;7.002;2022-09-24T17:23:30;15.04;85.75
65652;SHT30;52350;51.546;7.002;2022-09-24T17:28:30;15.10;83.97
65652;SHT30;52350;51.546;7.002;2022-09-24T17:30:57;15.04;84.25
65652;SHT30;52350;51.546;7.002;2022-09-24T17:33:22;15.02;84.38
65652;SHT30;52350;51.546;7.002;2022-09-24T17:35:58;15.04;84.33
65652;SHT30;52350;51.546;7.002;2022-09-24T17:38:25;15.04;84.15
65652;SHT30;52350;51.546;7.002;2022-09-24T17:40:52;15.06;83.97
65652;SHT30;52350;51.546;7.002;2022-09-24T17:43:21;15.00;83.76
65652;SHT30;52350;51.546;7.002;2022-09-24T17:45:59;14.97;83.70
65652;SHT30;52350;51.546;7.002;2022-09-24T17:48:27;14.96;83.80
65652;SHT30;52350;51.546;7.002;2022-09-24T17:50:56;14.89;84.28
65652;SHT30;52350;51.546;7.002;2022-09-24T17:53:23;14.85;84.57
65652;SHT30;52350;51.546;7.002;2022-09-24T17:55:49;14.83;84.79
65652;SHT30;52350;51.546;7.002;2022-09-24T17:58:16;14.75;85.04
65652;SHT30;52350;51.546;7.002;2022-09-24T18:00:42;14.71;85.20
65652;SHT30;52350;51.546;7.002;2022-09-24T18:03:08;14.71;85.42
65652;SHT30;52350;51.546;7.002;2022-09-24T18:05:34;14.65;85.62
65652;SHT30;52350;51.546;7.002;2022-09-24T18:07:59;14.64;85.78